createdAt,value
2022-11-24T00:01:19.079Z,97.67
2022-11-24T00:03:52.411Z,97.45
2022-11-24T00:06:19.515Z,97.39
2022-11-24T00:08:47.249Z,97.55
2022-11-24T00:11:20.905Z,97.62
2022-11-24T00:13:48.697Z,97.48
2022-11-24T00:16:21.473Z,97.46
2022-11-24T00:18:50.107Z,97.24
2022-11-24T00:21:18.703Z,97.49
2022-11-24T00:23:47.142Z,97.54
2022-11-24T00:26:19.715Z,97.41
2022-11-24T00:28:49.149Z,97.67
2022-11-24T00:31:21.737Z,97.67
2022-11-24T00:33:52.116Z,97.74
2022-11-24T00:36:20.244Z,97.90
2022-11-24T00:38:48.144Z,97.34
2022-11-24T00:41:15.056Z,97.39
2022-11-24T00:43:42.244Z,97.65
2022-11-24T00:46:09.645Z,97.79
2022-11-24T00:48:36.982Z,97.51
2022-11-24T00:51:07.144Z,97.60
2022-11-24T00:53:34.382Z,97.58
2022-11-24T00:56:04.053Z,97.63
2022-11-24T00:58:32.225Z,97.77
2022-11-24T01:01:07.865Z,97.53
2022-11-24T01:03:35.599Z,97.53
2022-11-24T01:06:15.060Z,97.08
2022-11-24T01:08:43.061Z,97.42
2022-11-24T01:11:17.451Z,97.28
2022-11-24T01:13:46.975Z,97.52
2022-11-24T01:16:15.385Z,97.24
2022-11-24T01:18:42.787Z,97.46
2022-11-24T01:21:10.394Z,97.46
2022-11-24T01:23:38.168Z,97.37
2022-11-24T01:26:07.089Z,97.59
2022-11-24T01:28:35.275Z,97.62
2022-11-24T01:31:05.922Z,97.97
2022-11-24T01:33:34.527Z,97.54
2022-11-24T01:36:02.442Z,97.50
2022-11-24T01:38:30.373Z,97.94
2022-11-24T01:41:02.172Z,97.86
2022-11-24T01:43:29.467Z,98.01
2022-11-24T01:45:58.077Z,97.81
2022-11-24T01:48:30.451Z,98.06
2022-11-24T01:51:26.874Z,98.28
2022-11-24T01:54:00.469Z,98.29
2022-11-24T01:56:28.803Z,98.44
2022-11-24T01:59:00.683Z,98.30
2022-11-24T02:01:29.368Z,98.30
2022-11-24T02:03:57.733Z,98.35
2022-11-24T02:06:29.365Z,98.52
2022-11-24T02:09:24.127Z,98.39
2022-11-24T02:11:53.817Z,98.77
2022-11-24T02:14:23.866Z,98.57
2022-11-24T02:16:53.101Z,99.07
2022-11-24T02:19:37.716Z,98.79
2022-11-24T02:22:05.201Z,99.02
2022-11-24T02:24:47.391Z,99.28
2022-11-24T02:27:14.400Z,99.35
2022-11-24T02:29:42.019Z,99.50
2022-11-24T02:32:11.416Z,99.71
2022-11-24T02:34:38.715Z,99.41
2022-11-24T02:37:05.697Z,99.72
2022-11-24T02:39:33.199Z,99.51
2022-11-24T02:42:05.282Z,99.66
2022-11-24T02:44:37.902Z,99.37
2022-11-24T02:47:07.284Z,99.23
2022-11-24T02:49:34.795Z,99.24
2022-11-24T02:52:02.012Z,99.28
2022-11-24T02:54:29.341Z,99.32
2022-11-24T02:56:56.726Z,99.46
2022-11-24T02:59:24.178Z,99.11
2022-11-24T03:01:51.163Z,99.12
2022-11-24T03:04:18.382Z,99.10
2022-11-24T03:06:45.455Z,98.98
2022-11-24T03:09:12.857Z,99.34
2022-11-24T03:11:40.035Z,99.28
2022-11-24T03:14:07.667Z,99.22
2022-11-24T03:16:34.922Z,99.41
2022-11-24T03:19:02.541Z,99.26
2022-11-24T03:21:29.877Z,99.18
2022-11-24T03:23:57.076Z,99.50
2022-11-24T03:26:26.362Z,99.76
2022-11-24T03:28:55.426Z,99.67
2022-11-24T03:31:23.118Z,99.64
2022-11-24T03:33:50.474Z,99.88
2022-11-24T03:36:17.699Z,99.47
2022-11-24T03:38:45.631Z,99.48
2022-11-24T03:41:12.925Z,99.95
2022-11-24T03:43:43.807Z,99.66
2022-11-24T03:46:12.486Z,99.60
2022-11-24T03:48:39.805Z,99.35
2022-11-24T03:51:06.986Z,99.52
2022-11-24T03:53:34.456Z,99.48
2022-11-24T03:56:02.224Z,99.22
2022-11-24T03:58:30.273Z,99.47
2022-11-24T04:00:58.007Z,99.33
2022-11-24T04:03:26.265Z,99.68
2022-11-24T04:05:53.101Z,99.52
2022-11-24T04:08:20.467Z,99.21
2022-11-24T04:10:52.403Z,99.14
2022-11-24T04:13:22.262Z,98.93
2022-11-24T04:15:49.414Z,99.16
2022-11-24T04:18:16.678Z,98.95
2022-11-24T04:20:43.805Z,98.89
2022-11-24T04:23:11.497Z,99.19
2022-11-24T04:25:38.873Z,98.94
2022-11-24T04:28:06.699Z,99.07
2022-11-24T04:30:34.004Z,99.22
2022-11-24T04:33:01.134Z,98.84
2022-11-24T04:35:28.465Z,98.63
2022-11-24T04:37:55.866Z,98.67
2022-11-24T04:40:22.763Z,98.46
2022-11-24T04:42:56.845Z,98.42
2022-11-24T04:45:23.907Z,98.31
2022-11-24T04:47:51.187Z,98.44
2022-11-24T04:50:18.600Z,98.46
2022-11-24T04:52:46.071Z,98.17
2022-11-24T04:55:13.239Z,98.03
2022-11-24T04:57:40.835Z,97.95
2022-11-24T05:00:09.257Z,97.87
2022-11-24T05:02:36.886Z,97.91
2022-11-24T05:05:04.610Z,97.92
2022-11-24T05:07:32.060Z,97.97
2022-11-24T05:10:17.925Z,98.03
2022-11-24T05:12:51.045Z,98.15
2022-11-24T05:15:18.317Z,97.79
2022-11-24T05:17:45.447Z,97.87
2022-11-24T05:20:12.347Z,97.88
2022-11-24T05:22:39.858Z,98.11
2022-11-24T05:25:06.964Z,98.04
2022-11-24T05:27:34.307Z,98.14
2022-11-24T05:30:01.413Z,97.99
2022-11-24T05:32:28.834Z,98.04
2022-11-24T05:34:56.907Z,97.89
2022-11-24T05:37:25.767Z,97.81
2022-11-24T05:39:54.671Z,98.08
2022-11-24T05:42:46.239Z,98.52
2022-11-24T05:45:20.191Z,98.09
2022-11-24T05:47:49.014Z,98.46
2022-11-24T05:50:18.626Z,98.44
2022-11-24T05:52:46.099Z,98.43
2022-11-24T05:55:15.108Z,98.46
2022-11-24T05:57:42.663Z,98.84
2022-11-24T06:00:10.879Z,98.57
2022-11-24T06:02:41.118Z,98.65
2022-11-24T06:05:08.575Z,98.80
2022-11-24T06:07:35.884Z,98.36
2022-11-24T06:10:03.751Z,98.41
2022-11-24T06:12:31.170Z,98.36
2022-11-24T06:14:57.977Z,98.33
2022-11-24T06:17:25.470Z,97.91
2022-11-24T06:19:52.477Z,98.02
2022-11-24T06:22:19.726Z,98.03
2022-11-24T06:24:47.271Z,98.22
2022-11-24T06:27:14.695Z,98.36
2022-11-24T06:29:42.356Z,97.97
2022-11-24T06:32:10.098Z,98.17
2022-11-24T06:34:37.543Z,98.48
2022-11-24T06:37:05.150Z,98.45
2022-11-24T06:39:32.344Z,98.04
2022-11-24T06:42:00.341Z,97.67
2022-11-24T06:44:27.447Z,97.34
2022-11-24T06:46:55.153Z,97.02
2022-11-24T06:49:22.305Z,97.09
2022-11-24T06:51:50.513Z,97.35
2022-11-24T06:54:21.410Z,96.99
2022-11-24T06:56:48.821Z,96.80
2022-11-24T06:59:20.325Z,96.72
2022-11-24T07:01:47.773Z,96.80
2022-11-24T07:04:16.173Z,96.56
2022-11-24T07:06:44.290Z,96.75
2022-11-24T07:09:13.548Z,96.78
2022-11-24T07:11:41.188Z,96.51
2022-11-24T07:14:08.869Z,96.70
2022-11-24T07:16:36.892Z,96.71
2022-11-24T07:19:03.966Z,96.45
2022-11-24T07:21:31.448Z,96.15
2022-11-24T07:23:58.868Z,96.04
2022-11-24T07:26:27.704Z,96.18
2022-11-24T07:28:55.118Z,96.10
2022-11-24T07:31:25.207Z,96.12
2022-11-24T07:33:54.416Z,96.44
2022-11-24T07:36:23.446Z,96.17
2022-11-24T07:38:50.997Z,95.93
2022-11-24T07:41:19.741Z,96.02
2022-11-24T07:43:47.559Z,96.29
2022-11-24T07:46:17.551Z,95.91
2022-11-24T07:48:45.312Z,95.89
2022-11-24T07:51:13.665Z,95.74
2022-11-24T07:53:41.066Z,95.64
2022-11-24T07:56:10.111Z,95.99
2022-11-24T07:58:37.802Z,95.96
2022-11-24T08:01:32.153Z,96.16
2022-11-24T08:03:59.145Z,95.80
2022-11-24T08:06:36.195Z,96.02
2022-11-24T08:09:07.236Z,95.99
2022-11-24T08:11:34.888Z,95.86
2022-11-24T08:14:01.875Z,95.81
2022-11-24T08:16:29.418Z,96.11
2022-11-24T08:18:56.414Z,95.92
2022-11-24T08:21:24.895Z,95.67
2022-11-24T08:23:56.659Z,95.66
2022-11-24T08:26:25.256Z,95.55
2022-11-24T08:28:58.971Z,95.45
2022-11-24T08:31:32.943Z,94.76
2022-11-24T08:34:01.639Z,94.87
2022-11-24T08:36:30.152Z,94.88
2022-11-24T08:38:59.347Z,94.64
2022-11-24T08:41:28.798Z,94.45
2022-11-24T08:43:56.643Z,94.40
2022-11-24T08:46:24.317Z,94.32
2022-11-24T08:48:54.214Z,94.83
2022-11-24T08:51:25.131Z,95.01
2022-11-24T08:54:01.144Z,94.67
2022-11-24T08:56:31.311Z,94.06
2022-11-24T08:58:59.298Z,93.81
2022-11-24T09:01:27.369Z,94.27
2022-11-24T09:03:54.565Z,94.60
2022-11-24T09:06:25.151Z,94.31
2022-11-24T09:08:54.617Z,94.19
2022-11-24T09:11:23.091Z,94.08
2022-11-24T09:13:50.500Z,93.13
2022-11-24T09:16:23.346Z,93.10
2022-11-24T09:19:02.498Z,92.12
2022-11-24T09:21:33.692Z,92.23
2022-11-24T09:24:00.558Z,92.53
2022-11-24T09:26:33.493Z,92.58
2022-11-24T09:29:01.886Z,92.69
2022-11-24T09:31:35.942Z,92.25
2022-11-24T09:34:22.358Z,92.30
2022-11-24T09:36:51.725Z,92.54
2022-11-24T09:39:18.733Z,92.66
2022-11-24T09:42:14.868Z,92.32
2022-11-24T09:45:11.080Z,92.14
2022-11-24T09:47:41.267Z,92.69
2022-11-24T09:50:24.242Z,92.76
2022-11-24T09:53:03.748Z,92.84
2022-11-24T09:55:42.853Z,92.39
2022-11-24T09:58:49.170Z,92.75
2022-11-24T10:01:30.758Z,93.10
2022-11-24T10:04:05.649Z,93.41
2022-11-24T10:06:58.716Z,93.46
2022-11-24T10:09:32.929Z,92.94
2022-11-24T10:12:24.065Z,93.15
2022-11-24T10:15:10.115Z,92.85
2022-11-24T10:17:43.530Z,93.00
2022-11-24T10:20:23.166Z,92.05
2022-11-24T10:23:17.237Z,92.19
2022-11-24T10:25:57.546Z,92.88
2022-11-24T10:28:32.488Z,92.73
2022-11-24T10:31:17.681Z,93.07
2022-11-24T10:33:45.341Z,92.93
2022-11-24T10:36:20.503Z,93.00
2022-11-24T10:39:05.517Z,91.92
2022-11-24T10:41:58.025Z,92.16
2022-11-24T10:44:25.472Z,92.45
2022-11-24T10:46:53.045Z,92.26
2022-11-24T10:49:25.269Z,91.92
2022-11-24T10:52:15.314Z,91.65
2022-11-24T10:55:00.016Z,91.53
2022-11-24T10:57:36.520Z,92.42
2022-11-24T11:00:24.044Z,93.22
2022-11-24T11:03:11.524Z,93.00
2022-11-24T11:05:43.147Z,92.88
2022-11-24T11:08:20.950Z,93.24
2022-11-24T11:11:30.313Z,92.46
2022-11-24T11:14:03.798Z,92.46
2022-11-24T11:16:46.162Z,92.47
2022-11-24T11:19:50.928Z,91.33
2022-11-24T11:22:25.139Z,91.82
2022-11-24T11:25:10.679Z,91.90
2022-11-24T11:27:39.754Z,91.72
2022-11-24T11:36:11.329Z,91.35
2022-11-24T11:38:40.671Z,91.04
2022-11-24T11:41:18.979Z,91.05
2022-11-24T11:43:50.583Z,90.75
2022-11-24T11:46:17.948Z,90.84
2022-11-24T11:48:48.146Z,90.42
2022-11-24T11:51:31.406Z,90.72
2022-11-24T11:54:07.750Z,90.94
2022-11-24T11:56:46.552Z,91.35
2022-11-24T11:59:16.722Z,91.43
2022-11-24T12:02:08.061Z,91.20
2022-11-24T12:04:57.151Z,91.08
2022-11-24T12:07:54.622Z,91.08
2022-11-24T12:10:42.402Z,91.21
2022-11-24T12:13:30.620Z,91.13
2022-11-24T12:16:08.255Z,91.27
2022-11-24T12:18:58.472Z,91.33
2022-11-24T12:21:34.306Z,91.09
2022-11-24T12:24:14.951Z,90.83
2022-11-24T12:27:43.373Z,90.63
2022-11-24T12:30:18.628Z,90.94
2022-11-24T12:33:11.876Z,91.16
2022-11-24T12:36:03.824Z,90.97
2022-11-24T12:38:55.645Z,91.02
2022-11-24T12:42:00.314Z,90.25
2022-11-24T12:45:09.961Z,90.27
2022-11-24T12:48:04.713Z,90.33
2022-11-24T12:50:37.697Z,90.95
2022-11-24T12:53:04.951Z,90.73
2022-11-24T12:55:34.429Z,90.89
2022-11-24T12:58:13.657Z,90.67
2022-11-24T13:00:51.891Z,90.34
2022-11-24T13:03:32.742Z,90.72
2022-11-24T13:06:33.901Z,90.69
2022-11-24T13:09:12.943Z,90.69
2022-11-24T13:11:42.802Z,90.76
2022-11-24T13:14:13.584Z,90.76
2022-11-24T13:17:27.524Z,90.81
2022-11-24T13:19:41.589Z,91.00
2022-11-24T13:22:10.615Z,91.14
2022-11-24T13:24:39.695Z,90.97
2022-11-24T13:27:16.195Z,90.59
2022-11-24T13:29:48.953Z,90.65
2022-11-24T13:32:19.167Z,90.58
2022-11-24T13:34:55.644Z,90.39
2022-11-24T13:37:31.459Z,90.72
2022-11-24T13:40:13.311Z,90.64
2022-11-24T13:42:56.496Z,90.87
2022-11-24T13:45:39.311Z,91.22
2022-11-24T13:48:22.231Z,90.83
2022-11-24T13:50:50.052Z,90.83
2022-11-24T13:53:35.210Z,90.46
2022-11-24T13:56:08.155Z,90.38
2022-11-24T13:58:40.759Z,90.34
2022-11-24T14:01:13.024Z,90.18
2022-11-24T14:07:01.171Z,91.00
2022-11-24T14:09:52.069Z,91.16
2022-11-24T14:12:23.875Z,91.51
2022-11-24T14:14:53.173Z,91.84
2022-11-24T14:17:27.604Z,91.82
2022-11-24T14:19:56.759Z,91.54
2022-11-24T14:22:36.577Z,91.49
2022-11-24T14:25:05.583Z,91.43
2022-11-24T14:27:36.961Z,91.06
2022-11-24T14:30:09.907Z,91.32
2022-11-24T14:32:39.881Z,91.69
2022-11-24T14:35:28.125Z,91.63
2022-11-24T14:37:56.415Z,91.84
2022-11-24T14:40:40.127Z,91.85
2022-11-24T14:43:19.135Z,91.90
2022-11-24T14:46:02.455Z,91.67
2022-11-24T14:48:37.219Z,91.90
2022-11-24T14:51:13.190Z,92.08
2022-11-24T14:53:45.554Z,91.94
2022-11-24T14:56:36.149Z,92.09
2022-11-24T14:59:17.338Z,92.43
2022-11-24T15:01:44.461Z,92.58
2022-11-24T15:07:27.044Z,92.74
2022-11-24T15:10:00.871Z,92.69
2022-11-24T15:12:41.372Z,92.85
2022-11-24T15:15:14.625Z,92.85
2022-11-24T15:17:57.450Z,92.71
2022-11-24T15:20:45.694Z,92.93
2022-11-24T15:23:26.190Z,93.19
2022-11-24T15:26:16.754Z,93.09
2022-11-24T15:28:46.148Z,93.04
2022-11-24T15:31:14.495Z,92.78
2022-11-24T15:33:42.323Z,92.88
2022-11-24T15:36:11.952Z,92.96
2022-11-24T15:38:38.848Z,93.37
2022-11-24T15:41:18.213Z,93.35
2022-11-24T15:43:45.503Z,93.51
2022-11-24T15:46:13.183Z,93.64
2022-11-24T15:48:40.151Z,93.50
2022-11-24T15:51:13.890Z,93.51
2022-11-24T15:53:54.058Z,93.65
2022-11-24T15:56:25.466Z,93.69
2022-11-24T15:58:54.346Z,93.63
2022-11-24T16:01:24.075Z,93.78
2022-11-24T16:03:51.060Z,93.70
2022-11-24T16:06:24.524Z,93.62
2022-11-24T16:08:53.491Z,93.64
2022-11-24T16:11:21.840Z,93.86
2022-11-24T16:13:53.345Z,93.80
2022-11-24T16:16:23.324Z,94.24
2022-11-24T16:18:50.675Z,93.99
2022-11-24T16:21:18.245Z,94.22
2022-11-24T16:23:46.605Z,94.08
2022-11-24T16:26:13.928Z,94.05
2022-11-24T16:28:40.987Z,93.89
2022-11-24T16:31:08.494Z,93.68
2022-11-24T16:33:38.670Z,93.51
2022-11-24T16:36:06.454Z,93.24
2022-11-24T16:38:33.500Z,93.29
2022-11-24T16:41:00.810Z,93.10
2022-11-24T16:43:29.359Z,93.20
2022-11-24T16:46:08.684Z,93.13
2022-11-24T16:48:37.148Z,93.29
2022-11-24T16:51:10.108Z,93.56
2022-11-24T16:53:37.550Z,93.07
2022-11-24T16:56:05.430Z,93.11
2022-11-24T16:58:32.825Z,92.91
2022-11-24T17:01:07.962Z,92.78
2022-11-24T17:03:37.514Z,93.02
2022-11-24T17:06:07.257Z,92.94
2022-11-24T17:08:36.068Z,92.99
2022-11-24T17:11:08.229Z,93.02
2022-11-24T17:13:35.059Z,93.10
2022-11-24T17:16:07.264Z,93.17
2022-11-24T17:18:34.928Z,93.16
2022-11-24T17:21:07.727Z,92.87
2022-11-24T17:23:36.282Z,92.72
2022-11-24T17:26:10.608Z,92.39
2022-11-24T17:28:38.443Z,92.23
2022-11-24T17:31:10.461Z,92.15
2022-11-24T17:33:37.290Z,92.36
2022-11-24T17:36:06.771Z,92.47
2022-11-24T17:38:35.177Z,92.58
2022-11-24T17:41:02.787Z,92.81
2022-11-24T17:43:29.786Z,93.10
2022-11-24T17:46:01.029Z,93.00
2022-11-24T17:48:29.066Z,93.07
2022-11-24T17:51:03.531Z,93.07
2022-11-24T17:53:31.601Z,92.99
2022-11-24T17:56:00.106Z,93.01
2022-11-24T17:58:28.586Z,93.12
2022-11-24T18:00:56.811Z,93.54
2022-11-24T18:03:25.720Z,93.72
2022-11-24T18:05:52.899Z,94.32
2022-11-24T18:08:20.323Z,94.75
2022-11-24T18:10:47.731Z,95.24
2022-11-24T18:13:33.797Z,95.48
2022-11-24T18:16:04.273Z,95.31
2022-11-24T18:18:31.326Z,95.34
2022-11-24T18:21:00.973Z,95.64
2022-11-24T18:23:30.021Z,95.92
2022-11-24T18:26:02.740Z,96.10
2022-11-24T18:28:30.368Z,95.98
2022-11-24T18:31:02.593Z,95.86
2022-11-24T18:33:30.005Z,95.91
2022-11-24T18:36:02.061Z,96.00
2022-11-24T18:38:29.493Z,96.07
2022-11-24T18:40:59.394Z,96.20
2022-11-24T18:43:29.389Z,96.44
2022-11-24T18:45:56.976Z,96.34
2022-11-24T18:48:25.797Z,96.45
2022-11-24T18:50:54.843Z,96.78
2022-11-24T18:53:24.548Z,96.90
2022-11-24T18:56:06.637Z,97.20
2022-11-24T18:58:35.584Z,97.17
2022-11-24T19:01:16.978Z,96.99
2022-11-24T19:03:48.583Z,96.72
2022-11-24T19:06:19.758Z,96.14
2022-11-24T19:08:48.124Z,96.23
2022-11-24T19:11:28.419Z,96.38
2022-11-24T19:13:57.063Z,96.18
2022-11-24T19:16:25.000Z,96.27
2022-11-24T19:18:56.869Z,96.32
2022-11-24T19:21:23.810Z,95.78
2022-11-24T19:23:50.937Z,95.36
2022-11-24T19:26:18.290Z,95.44
2022-11-24T19:28:45.607Z,96.07
2022-11-24T19:31:14.485Z,96.04
2022-11-24T19:33:42.446Z,96.31
2022-11-24T19:36:19.152Z,95.98
2022-11-24T19:38:55.286Z,95.69
2022-11-24T19:41:24.709Z,95.79
2022-11-24T19:43:56.416Z,96.37
2022-11-24T19:46:28.032Z,96.26
2022-11-24T19:48:59.394Z,96.54
2022-11-24T19:51:30.756Z,96.30
2022-11-24T19:53:58.931Z,96.51
2022-11-24T19:56:28.664Z,96.96
2022-11-24T19:58:56.450Z,96.83
2022-11-24T20:01:29.189Z,97.05
2022-11-24T20:03:59.151Z,96.57
2022-11-24T20:06:28.662Z,96.59
2022-11-24T20:08:57.997Z,96.89
2022-11-24T20:11:25.270Z,96.95
2022-11-24T20:13:52.509Z,96.75
2022-11-24T20:16:29.673Z,96.34
2022-11-24T20:18:59.243Z,96.41
2022-11-24T20:21:31.206Z,96.85
2022-11-24T20:23:59.560Z,96.21
2022-11-24T20:26:32.250Z,95.99
2022-11-24T20:29:00.395Z,96.26
2022-11-24T20:31:33.923Z,96.65
2022-11-24T20:34:02.533Z,97.00
2022-11-24T20:36:31.670Z,97.09
2022-11-24T20:39:00.708Z,97.02
2022-11-24T20:41:30.477Z,96.92
2022-11-24T20:44:00.768Z,97.35
2022-11-24T20:46:30.543Z,97.29
2022-11-24T20:48:58.207Z,97.01
2022-11-24T20:51:31.591Z,97.26
2022-11-24T20:54:01.378Z,97.51
2022-11-24T20:56:31.338Z,97.60
2022-11-24T20:58:59.156Z,97.57
2022-11-24T21:01:30.136Z,97.62
2022-11-24T21:03:59.337Z,97.54
2022-11-24T21:06:28.210Z,97.59
2022-11-24T21:09:00.396Z,97.65
2022-11-24T21:11:30.040Z,97.53
2022-11-24T21:13:57.114Z,97.28
2022-11-24T21:16:29.771Z,97.41
2022-11-24T21:18:59.304Z,97.45
2022-11-24T21:21:33.399Z,97.70
2022-11-24T21:24:01.912Z,97.32
2022-11-24T21:26:29.355Z,97.52
2022-11-24T21:28:57.374Z,97.08
2022-11-24T21:31:24.678Z,97.32
2022-11-24T21:33:53.482Z,97.36
2022-11-24T21:36:23.272Z,97.43
2022-11-24T21:38:55.739Z,97.33
2022-11-24T21:41:25.664Z,96.97
2022-11-24T21:43:55.515Z,97.00
2022-11-24T21:46:23.593Z,96.79
2022-11-24T21:48:50.896Z,96.15
2022-11-24T21:51:20.771Z,96.32
2022-11-24T21:53:48.341Z,96.38
2022-11-24T21:56:20.474Z,96.45
2022-11-24T21:58:58.031Z,96.32
2022-11-24T22:01:28.121Z,96.01
2022-11-24T22:03:56.336Z,95.80
2022-11-24T22:06:24.117Z,95.51
2022-11-24T22:08:51.108Z,95.99
2022-11-24T22:11:23.160Z,95.85
2022-11-24T22:13:51.014Z,95.85
2022-11-24T22:16:21.212Z,95.80
2022-11-24T22:18:49.307Z,96.10
2022-11-24T22:21:23.789Z,96.29
2022-11-24T22:23:52.596Z,96.05
2022-11-24T22:26:22.968Z,96.29
2022-11-24T22:28:51.178Z,96.07
2022-11-24T22:31:20.891Z,96.11
2022-11-24T22:33:48.844Z,96.15
2022-11-24T22:36:17.660Z,96.40
2022-11-24T22:38:44.581Z,96.93
2022-11-24T22:41:14.504Z,96.91
2022-11-24T22:43:42.932Z,96.99
2022-11-24T22:46:15.982Z,97.00
2022-11-24T22:48:45.174Z,97.05
2022-11-24T22:51:34.255Z,97.11
2022-11-24T22:54:03.832Z,96.44
2022-11-24T22:56:32.632Z,96.51
2022-11-24T22:59:00.947Z,96.40
2022-11-24T23:01:31.609Z,96.46
2022-11-24T23:03:58.480Z,96.48
2022-11-24T23:06:29.580Z,96.86
2022-11-24T23:08:58.533Z,96.86
2022-11-24T23:11:37.170Z,97.24
2022-11-24T23:14:05.562Z,97.42
2022-11-24T23:16:32.956Z,97.58
2022-11-24T23:19:00.184Z,97.08
2022-11-24T23:21:29.818Z,96.74
2022-11-24T23:23:58.847Z,96.91
2022-11-24T23:26:35.408Z,97.29
2022-11-24T23:29:02.623Z,97.33
2022-11-24T23:31:30.253Z,97.13
2022-11-24T23:33:59.035Z,97.05
2022-11-24T23:36:26.513Z,97.35
2022-11-24T23:38:54.581Z,97.35
2022-11-24T23:41:24.689Z,97.98
2022-11-24T23:43:52.474Z,98.46
2022-11-24T23:46:22.146Z,98.42
2022-11-24T23:48:51.326Z,98.56
2022-11-24T23:51:18.357Z,98.44
2022-11-24T23:53:45.982Z,98.46
2022-11-24T23:56:19.347Z,98.54
2022-11-24T23:58:46.889Z,98.28
